sensor_id;sensor_type;location;lat;lon;timestamp;temperature;humidity
1079;DHT22;528;47.872;11.478;2022-08-19T01:10:41;19.90;99.90
1079;DHT22;528;47.872;11.478;2022-08-19T01:13:14;19.90;99.90
1079;DHT22;528;47.872;11.478;2022-08-19T01:15:49;19.90;99.90
1079;DHT22;528;47.872;11.478;2022-08-19T01:23:48;19.70;99.90
1079;DHT22;528;47.872;11.478;2022-08-19T01:26:23;19.70;99.90
1079;DHT22;528;47.872;11.478;2022-08-19T01:31:29;19.60;99.90
1079;DHT22;528;47.872;11.478;2022-08-19T01:34:11;19.60;99.90
1079;DHT22;528;47.872;11.478;2022-08-19T01:50:45;19.30;99.90
1079;DHT22;528;47.872;11.478;2022-08-19T01:53:16;19.30;99.90
1079;DHT22;528;47.872;11.478;2022-08-19T01:56:46;19.30;99.90
1079;DHT22;528;47.872;11.478;2022-08-19T02:02:44;19.30;99.90
1079;DHT22;528;47.872;11.478;2022-08-19T02:05:22;19.30;99.90
1079;DHT22;528;47.872;11.478;2022-08-19T02:08:23;19.40;99.90
1079;DHT22;528;47.872;11.478;2022-08-19T02:11:04;19.40;99.90
1079;DHT22;528;47.872;11.478;2022-08-19T02:15:58;19.40;99.90
1079;DHT22;528;47.872;11.478;2022-08-19T05:31:35;19.40;99.90
1079;DHT22;528;47.872;11.478;2022-08-19T05:34:09;19.40;99.90
1079;DHT22;528;47.872;11.478;2022-08-19T05:36:42;19.40;99.90
1079;DHT22;528;47.872;11.478;2022-08-19T05:39:15;19.40;99.90
1079;DHT22;528;47.872;11.478;2022-08-19T05:41:52;19.40;99.90
1079;DHT22;528;47.872;11.478;2022-08-19T05:44:36;19.40;99.90
1079;DHT22;528;47.872;11.478;2022-08-19T05:47:21;19.40;99.90
1079;DHT22;528;47.872;11.478;2022-08-19T05:49:58;19.40;99.90
1079;DHT22;528;47.872;11.478;2022-08-19T05:52:34;19.50;99.90
1079;DHT22;528;47.872;11.478;2022-08-19T05:55:08;19.50;99.90
1079;DHT22;528;47.872;11.478;2022-08-19T05:57:42;19.60;99.90
1079;DHT22;528;47.872;11.478;2022-08-19T06:00:16;19.60;99.90
1079;DHT22;528;47.872;11.478;2022-08-19T06:02:58;19.60;99.90
1079;DHT22;528;47.872;11.478;2022-08-19T06:05:32;19.60;99.90
1079;DHT22;528;47.872;11.478;2022-08-19T06:08:03;19.60;99.90
1079;DHT22;528;47.872;11.478;2022-08-19T06:10:33;19.60;99.90
1079;DHT22;528;47.872;11.478;2022-08-19T06:13:07;19.60;99.90
1079;DHT22;528;47.872;11.478;2022-08-19T06:15:46;19.70;99.90
1079;DHT22;528;47.872;11.478;2022-08-19T06:18:37;19.60;99.90
1079;DHT22;528;47.872;11.478;2022-08-19T06:21:16;19.60;99.90
1079;DHT22;528;47.872;11.478;2022-08-19T06:24:05;19.60;99.90
1079;DHT22;528;47.872;11.478;2022-08-19T06:26:55;19.60;99.90
1079;DHT22;528;47.872;11.478;2022-08-19T06:29:47;19.60;99.90
1079;DHT22;528;47.872;11.478;2022-08-19T06:32:33;19.60;99.90
1079;DHT22;528;47.872;11.478;2022-08-19T06:38:48;19.60;99.90
1079;DHT22;528;47.872;11.478;2022-08-19T06:41:40;19.60;99.90
1079;DHT22;528;47.872;11.478;2022-08-19T06:44:20;19.70;99.90
1079;DHT22;528;47.872;11.478;2022-08-19T08:15:58;20.20;99.90
1079;DHT22;528;47.872;11.478;2022-08-19T08:18:26;20.20;99.90
1079;DHT22;528;47.872;11.478;2022-08-19T08:20:53;20.20;99.90
1079;DHT22;528;47.872;11.478;2022-08-19T08:23:21;20.10;99.90
1079;DHT22;528;47.872;11.478;2022-08-19T08:25:53;20.20;99.90
1079;DHT22;528;47.872;11.478;2022-08-19T08:28:22;20.20;99.90
1079;DHT22;528;47.872;11.478;2022-08-19T08:33:34;20.10;99.90
1079;DHT22;528;47.872;11.478;2022-08-19T08:36:13;20.20;99.90
1079;DHT22;528;47.872;11.478;2022-08-19T08:41:29;20.10;99.90
1079;DHT22;528;47.872;11.478;2022-08-19T08:43:58;20.10;99.90
1079;DHT22;528;47.872;11.478;2022-08-19T08:46:37;20.10;99.90
1079;DHT22;528;47.872;11.478;2022-08-19T08:49:17;20.10;99.90
1079;DHT22;528;47.872;11.478;2022-08-19T08:51:51;20.10;99.90
1079;DHT22;528;47.872;11.478;2022-08-19T08:54:38;20.20;99.90
1079;DHT22;528;47.872;11.478;2022-08-19T09:15:40;20.10;99.90
1079;DHT22;528;47.872;11.478;2022-08-19T09:18:45;20.10;99.90
1079;DHT22;528;47.872;11.478;2022-08-19T15:47:20;22.00;99.90
1079;DHT22;528;47.872;11.478;2022-08-19T15:50:47;21.90;99.90
1079;DHT22;528;47.872;11.478;2022-08-19T17:13:12;21.00;99.90
1079;DHT22;528;47.872;11.478;2022-08-19T17:15:53;21.00;99.90
1079;DHT22;528;47.872;11.478;2022-08-19T17:18:48;21.00;99.90
1079;DHT22;528;47.872;11.478;2022-08-19T17:21:47;21.00;99.90
1079;DHT22;528;47.872;11.478;2022-08-19T17:24:30;21.00;99.90
1079;DHT22;528;47.872;11.478;2022-08-19T17:27:11;21.10;99.90
1079;DHT22;528;47.872;11.478;2022-08-19T17:29:42;21.00;99.90
1079;DHT22;528;47.872;11.478;2022-08-19T17:32:17;21.00;99.90
1079;DHT22;528;47.872;11.478;2022-08-19T17:34:46;21.00;99.90
1079;DHT22;528;47.872;11.478;2022-08-19T17:37:13;21.00;99.90
1079;DHT22;528;47.872;11.478;2022-08-19T17:39:40;21.00;99.90
1079;DHT22;528;47.872;11.478;2022-08-19T17:42:07;21.00;99.90
1079;DHT22;528;47.872;11.478;2022-08-19T17:44:35;21.00;99.90
1079;DHT22;528;47.872;11.478;2022-08-19T17:47:23;21.00;99.90
1079;DHT22;528;47.872;11.478;2022-08-19T17:49:51;21.00;99.90
1079;DHT22;528;47.872;11.478;2022-08-19T17:52:24;21.00;99.90
1079;DHT22;528;47.872;11.478;2022-08-19T17:55:02;21.00;99.90
1079;DHT22;528;47.872;11.478;2022-08-19T17:57:44;21.00;99.90
1079;DHT22;528;47.872;11.478;2022-08-19T18:10:43;20.90;99.90
1079;DHT22;528;47.872;11.478;2022-08-19T18:13:43;20.90;99.90
1079;DHT22;528;47.872;11.478;2022-08-19T18:17:18;20.90;99.90
1079;DHT22;528;47.872;11.478;2022-08-19T18:22:02;20.90;99.90
1079;DHT22;528;47.872;11.478;2022-08-19T18:25:15;20.80;99.90
1079;DHT22;528;47.872;11.478;2022-08-19T18:27:59;20.80;99.90
1079;DHT22;528;47.872;11.478;2022-08-19T21:45:06;18.80;99.90
1079;DHT22;528;47.872;11.478;2022-08-19T21:47:37;18.80;99.90
1079;DHT22;528;47.872;11.478;2022-08-19T21:50:10;18.80;99.90
1079;DHT22;528;47.872;11.478;2022-08-19T21:52:39;18.70;99.90
1079;DHT22;528;47.872;11.478;2022-08-19T21:55:13;18.70;99.90
1079;DHT22;528;47.872;11.478;2022-08-19T21:57:42;18.70;99.90
1079;DHT22;528;47.872;11.478;2022-08-19T22:00:15;18.70;99.90
1079;DHT22;528;47.872;11.478;2022-08-19T22:02:57;18.70;99.90
1079;DHT22;528;47.872;11.478;2022-08-19T22:05:28;18.70;99.90
1079;DHT22;528;47.872;11.478;2022-08-19T22:08:01;18.70;99.90
1079;DHT22;528;47.872;11.478;2022-08-19T22:10:32;18.70;99.90
1079;DHT22;528;47.872;11.478;2022-08-19T22:13:04;18.70;99.90
1079;DHT22;528;47.872;11.478;2022-08-19T22:15:40;18.70;99.90
1079;DHT22;528;47.872;11.478;2022-08-19T22:21:38;18.70;99.90
1079;DHT22;528;47.872;11.478;2022-08-19T22:24:25;18.70;99.90
1079;DHT22;528;47.872;11.478;2022-08-19T22:27:09;18.70;99.90
1079;DHT22;528;47.872;11.478;2022-08-19T22:29:47;18.70;99.90
1079;DHT22;528;47.872;11.478;2022-08-19T22:33:11;18.70;99.90
1079;DHT22;528;47.872;11.478;2022-08-19T22:36:03;18.60;99.90
1079;DHT22;528;47.872;11.478;2022-08-19T22:38:58;18.70;99.90
1079;DHT22;528;47.872;11.478;2022-08-19T22:41:40;18.60;99.90
1079;DHT22;528;47.872;11.478;2022-08-19T22:44:10;18.50;99.90
1079;DHT22;528;47.872;11.478;2022-08-19T22:46:57;18.50;99.90
1079;DHT22;528;47.872;11.478;2022-08-19T22:49:39;18.50;99.90
1079;DHT22;528;47.872;11.478;2022-08-19T22:52:08;18.60;99.90
1079;DHT22;528;47.872;11.478;2022-08-19T22:54:43;18.60;99.90
1079;DHT22;528;47.872;11.478;2022-08-19T22:57:12;18.60;99.90
1079;DHT22;528;47.872;11.478;2022-08-19T22:59:46;18.50;99.90
1079;DHT22;528;47.872;11.478;2022-08-19T23:02:17;18.50;99.90
1079;DHT22;528;47.872;11.478;2022-08-19T23:04:59;18.50;99.90
1079;DHT22;528;47.872;11.478;2022-08-19T23:07:30;18.40;99.90
1079;DHT22;528;47.872;11.478;2022-08-19T23:10:00;18.40;99.90
1079;DHT22;528;47.872;11.478;2022-08-19T23:12:29;18.40;99.90
1079;DHT22;528;47.872;11.478;2022-08-19T23:15:00;18.30;99.90
1079;DHT22;528;47.872;11.478;2022-08-19T23:17:30;18.40;99.90
1079;DHT22;528;47.872;11.478;2022-08-19T23:20:43;18.40;99.90
1079;DHT22;528;47.872;11.478;2022-08-19T23:23:10;18.40;99.90
1079;DHT22;528;47.872;11.478;2022-08-19T23:25:40;18.30;99.90
1079;DHT22;528;47.872;11.478;2022-08-19T23:28:10;18.30;99.90
1079;DHT22;528;47.872;11.478;2022-08-19T23:31:01;18.30;99.90
1079;DHT22;528;47.872;11.478;2022-08-19T23:33:38;18.30;99.90
1079;DHT22;528;47.872;11.478;2022-08-19T23:36:15;18.40;99.90
1079;DHT22;528;47.872;11.478;2022-08-19T23:38:58;18.40;99.90
1079;DHT22;528;47.872;11.478;2022-08-19T23:41:27;18.40;99.90
1079;DHT22;528;47.872;11.478;2022-08-19T23:43:57;18.40;99.90
1079;DHT22;528;47.872;11.478;2022-08-19T23:46:25;18.40;99.90
1079;DHT22;528;47.872;11.478;2022-08-19T23:48:52;18.50;99.90
1079;DHT22;528;47.872;11.478;2022-08-19T23:51:21;18.30;99.90
1079;DHT22;528;47.872;11.478;2022-08-19T23:53:51;18.30;99.90
1079;DHT22;528;47.872;11.478;2022-08-19T23:56:28;18.30;99.90
1079;DHT22;528;47.872;11.478;2022-08-19T23:59:04;18.30;99.90
